PWSweather.com
Personal Weather Stations
Station Observations
WEBSTRMN
Downtown Webster, Mn Usa, Webster, MN 55088

Downtown Webster, Mn UsaWebster, MN 55088

Lat: 44.53, Lon: -93.35

Elevation: 1099

Station Type: Vantage Pro II

www.WebsterWeatherLIVE.com

High Low Average
Temperature 36.6°F2.6°C 21.4°F-5.9°C 27.6°F-2.4°C
Dew Point 29.4°F-1.4°C 18.7°F-7.4°C 23.1°F-4.9°C
Winds 6.1 mph 9.8 kmh Calm Calm 2.0 mph WSW3.2 kmh WSW
Wind Gusts 11.2 mph18.0 kmh -- 4.0 mph6.4 kmh
Humidity 90% 72% 83%
Pressure 30.14 in1020.7 mb 29.92 in1013.2 mb -
Precipitation 0.00 in0.0 mm - -
Hour Temp Dew Point Humidity Winds Wind Gusts Pressure Precip Precip Rate Daily Precip Total
12:00 AM 24.6°F-4.1°C 20.2°F-6.6°C 83% Calm Calm -- 29.92 in1013.2 mb 0.00 in0.0 mm 0.00 in/hr0.0 mm/hr 0.00 in0.0 mm
12:10 AM 24.5°F-4.2°C 20.1°F-6.6°C 83% Calm Calm -- 29.92 in1013.2 mb 0.00 in0.0 mm 0.00 in/hr0.0 mm/hr 0.00 in0.0 mm
12:20 AM 24.4°F-4.2°C 20.0°F-6.7°C 83% Calm Calm -- 29.93 in1013.5 mb 0.00 in0.0 mm 0.00 in/hr0.0 mm/hr 0.00 in0.0 mm
12:30 AM 24.5°F-4.2°C 20.3°F-6.5°C 84% 0.1 mph SW0.2 kmh SW 1.0 mph1.6 kmh 29.92 in1013.2 mb 0.00 in0.0 mm 0.00 in/hr0.0 mm/hr 0.00 in0.0 mm
12:40 AM 24.9°F-3.9°C 20.7°F-6.3°C 84% Calm Calm -- 29.93 in1013.5 mb 0.00 in0.0 mm 0.00 in/hr0.0 mm/hr 0.00 in0.0 mm
12:50 AM 24.8°F-4.0°C 20.7°F-6.3°C 84% Calm Calm -- 29.94 in1013.9 mb 0.00 in0.0 mm 0.00 in/hr0.0 mm/hr 0.00 in0.0 mm
01:00 AM 25.0°F-3.9°C 20.8°F-6.2°C 84% 1.3 mph SW2.1 kmh SW 2.0 mph3.2 kmh 29.95 in1014.2 mb 0.00 in0.0 mm 0.00 in/hr0.0 mm/hr 0.00 in0.0 mm
01:10 AM 24.9°F-3.9°C 20.4°F-6.4°C 83% Calm Calm -- 29.95 in1014.2 mb 0.00 in0.0 mm 0.00 in/hr0.0 mm/hr 0.00 in0.0 mm
01:20 AM 24.7°F-4.1°C 20.5°F-6.4°C 84% 1.6 mph WNW2.6 kmh WNW 3.1 mph5.0 kmh 29.96 in1014.6 mb 0.00 in0.0 mm 0.00 in/hr0.0 mm/hr 0.00 in0.0 mm
01:30 AM 24.7°F-4.1°C 20.6°F-6.3°C 84% 2.7 mph WNW4.3 kmh WNW 6.1 mph9.8 kmh 29.97 in1014.9 mb 0.00 in0.0 mm 0.00 in/hr0.0 mm/hr 0.00 in0.0 mm
01:40 AM 24.5°F-4.2°C 20.4°F-6.4°C 84% 1.0 mph NW1.6 kmh NW 2.0 mph3.2 kmh 29.96 in1014.6 mb 0.00 in0.0 mm 0.00 in/hr0.0 mm/hr 0.00 in0.0 mm
01:50 AM 24.4°F-4.2°C 20.3°F-6.5°C 84% 3.6 mph WNW5.8 kmh WNW 7.1 mph11.4 kmh 29.98 in1015.2 mb 0.00 in0.0 mm 0.00 in/hr0.0 mm/hr 0.00 in0.0 mm
02:10 AM 24.4°F-4.2°C 20.5°F-6.4°C 85% 3.0 mph WNW4.8 kmh WNW 5.1 mph8.2 kmh 30.00 in1015.9 mb 0.00 in0.0 mm 0.00 in/hr0.0 mm/hr 0.00 in0.0 mm
02:20 AM 24.6°F-4.1°C 21.0°F-6.1°C 86% 3.7 mph W6.0 kmh W 11.2 mph18.0 kmh 30.00 in1015.9 mb 0.00 in0.0 mm 0.00 in/hr0.0 mm/hr 0.00 in0.0 mm
02:30 AM 24.8°F-4.0°C 20.9°F-6.2°C 85% 3.2 mph WNW5.1 kmh WNW 4.1 mph6.6 kmh 30.00 in1015.9 mb 0.00 in0.0 mm 0.00 in/hr0.0 mm/hr 0.00 in0.0 mm
02:40 AM 24.8°F-4.0°C 20.9°F-6.2°C 85% 3.3 mph WNW5.3 kmh WNW 6.1 mph9.8 kmh 30.01 in1016.3 mb 0.00 in0.0 mm 0.00 in/hr0.0 mm/hr 0.00 in0.0 mm
02:50 AM 24.8°F-4.0°C 20.9°F-6.2°C 85% 2.5 mph WNW4.0 kmh WNW 3.1 mph5.0 kmh 30.02 in1016.6 mb 0.00 in0.0 mm 0.00 in/hr0.0 mm/hr 0.00 in0.0 mm
03:00 AM 24.7°F-4.1°C 21.1°F-6.1°C 86% Calm Calm -- 30.02 in1016.6 mb 0.00 in0.0 mm 0.00 in/hr0.0 mm/hr 0.00 in0.0 mm
03:10 AM 24.5°F-4.2°C 20.6°F-6.3°C 85% Calm Calm -- 30.02 in1016.6 mb 0.00 in0.0 mm 0.00 in/hr0.0 mm/hr 0.00 in0.0 mm
03:20 AM 24.2°F-4.3°C 20.6°F-6.3°C 86% Calm Calm -- 30.02 in1016.6 mb 0.00 in0.0 mm 0.00 in/hr0.0 mm/hr 0.00 in0.0 mm
03:30 AM 24.1°F-4.4°C 20.5°F-6.4°C 86% 1.2 mph WNW1.9 kmh WNW 1.0 mph1.6 kmh 30.03 in1016.9 mb 0.00 in0.0 mm 0.00 in/hr0.0 mm/hr 0.00 in0.0 mm
03:40 AM 24.0°F-4.4°C 20.4°F-6.4°C 86% 3.4 mph NW5.5 kmh NW 5.1 mph8.2 kmh 30.04 in1017.3 mb 0.00 in0.0 mm 0.00 in/hr0.0 mm/hr 0.00 in0.0 mm
03:50 AM 23.8°F-4.6°C 20.2°F-6.6°C 86% 2.1 mph NW3.4 kmh NW 3.1 mph5.0 kmh 30.04 in1017.3 mb 0.00 in0.0 mm 0.00 in/hr0.0 mm/hr 0.00 in0.0 mm
04:10 AM 23.7°F-4.6°C 20.4°F-6.4°C 87% 3.9 mph NW6.3 kmh NW 5.1 mph8.2 kmh 30.05 in1017.6 mb 0.00 in0.0 mm 0.00 in/hr0.0 mm/hr 0.00 in0.0 mm
04:20 AM 23.6°F-4.7°C 20.3°F-6.5°C 87% 2.9 mph W4.7 kmh W 5.1 mph8.2 kmh 30.06 in1017.9 mb 0.00 in0.0 mm 0.00 in/hr0.0 mm/hr 0.00 in0.0 mm
04:30 AM 23.4°F-4.8°C 20.1°F-6.6°C 87% 3.8 mph W6.1 kmh W 4.1 mph6.6 kmh 30.06 in1017.9 mb 0.00 in0.0 mm 0.00 in/hr0.0 mm/hr 0.00 in0.0 mm
04:40 AM 23.5°F-4.7°C 20.5°F-6.4°C 88% 4.2 mph WNW6.8 kmh WNW 7.1 mph11.4 kmh 30.06 in1017.9 mb 0.00 in0.0 mm 0.00 in/hr0.0 mm/hr 0.00 in0.0 mm
04:50 AM 23.7°F-4.6°C 20.7°F-6.3°C 88% 2.9 mph NW4.7 kmh NW 7.1 mph11.4 kmh 30.07 in1018.3 mb 0.00 in0.0 mm 0.00 in/hr0.0 mm/hr 0.00 in0.0 mm
05:00 AM 23.7°F-4.6°C 20.7°F-6.3°C 88% 3.8 mph WNW6.1 kmh WNW 7.1 mph11.4 kmh 30.07 in1018.3 mb 0.00 in0.0 mm 0.00 in/hr0.0 mm/hr 0.00 in0.0 mm
05:10 AM 23.6°F-4.7°C 20.6°F-6.3°C 88% 3.0 mph WNW4.8 kmh WNW 4.1 mph6.6 kmh 30.07 in1018.3 mb 0.00 in0.0 mm 0.00 in/hr0.0 mm/hr 0.00 in0.0 mm
05:20 AM 23.6°F-4.7°C 20.6°F-6.3°C 88% 2.5 mph WNW4.0 kmh WNW 4.1 mph6.6 kmh 30.07 in1018.3 mb 0.00 in0.0 mm 0.00 in/hr0.0 mm/hr 0.00 in0.0 mm
05:30 AM 23.4°F-4.8°C 20.4°F-6.4°C 88% 1.9 mph WNW3.1 kmh WNW 3.1 mph5.0 kmh 30.07 in1018.3 mb 0.00 in0.0 mm 0.00 in/hr0.0 mm/hr 0.00 in0.0 mm
05:50 AM 23.3°F-4.8°C 20.3°F-6.5°C 88% Calm Calm -- 30.07 in1018.3 mb 0.00 in0.0 mm 0.00 in/hr0.0 mm/hr 0.00 in0.0 mm
06:00 AM 22.9°F-5.1°C 19.9°F-6.7°C 88% 2.7 mph NW4.3 kmh NW 4.1 mph6.6 kmh 30.09 in1019.0 mb 0.00 in0.0 mm 0.00 in/hr0.0 mm/hr 0.00 in0.0 mm
06:10 AM 22.4°F-5.3°C 19.4°F-7.0°C 88% 2.6 mph WNW4.2 kmh WNW 4.1 mph6.6 kmh 30.10 in1019.3 mb 0.00 in0.0 mm 0.00 in/hr0.0 mm/hr 0.00 in0.0 mm
06:20 AM 22.2°F-5.4°C 19.2°F-7.1°C 88% 1.9 mph WNW3.1 kmh WNW 4.1 mph6.6 kmh 30.11 in1019.6 mb 0.00 in0.0 mm 0.00 in/hr0.0 mm/hr 0.00 in0.0 mm
06:30 AM 22.2°F-5.4°C 19.5°F-6.9°C 89% 2.8 mph WNW4.5 kmh WNW 5.1 mph8.2 kmh 30.12 in1020.0 mb 0.00 in0.0 mm 0.00 in/hr0.0 mm/hr 0.00 in0.0 mm
06:40 AM 22.1°F-5.5°C 19.4°F-7.0°C 89% 0.6 mph WNW1.0 kmh WNW 2.0 mph3.2 kmh 30.12 in1020.0 mb 0.00 in0.0 mm 0.00 in/hr0.0 mm/hr 0.00 in0.0 mm
06:50 AM 22.1°F-5.5°C 19.4°F-7.0°C 89% Calm Calm -- 30.11 in1019.6 mb 0.00 in0.0 mm 0.00 in/hr0.0 mm/hr 0.00 in0.0 mm
07:00 AM 22.0°F-5.6°C 19.3°F-7.1°C 89% Calm Calm -- 30.11 in1019.6 mb 0.00 in0.0 mm 0.00 in/hr0.0 mm/hr 0.00 in0.0 mm
07:20 AM 22.0°F-5.6°C 19.3°F-7.1°C 89% Calm Calm -- 30.11 in1019.6 mb 0.00 in0.0 mm 0.00 in/hr0.0 mm/hr 0.00 in0.0 mm
07:30 AM 21.8°F-5.7°C 19.0°F-7.2°C 89% 0.4 mph WNW0.6 kmh WNW 2.0 mph3.2 kmh 30.11 in1019.6 mb 0.00 in0.0 mm 0.00 in/hr0.0 mm/hr 0.00 in0.0 mm
07:40 AM 21.6°F-5.8°C 18.9°F-7.3°C 89% 1.0 mph WNW1.6 kmh WNW 2.0 mph3.2 kmh 30.12 in1020.0 mb 0.00 in0.0 mm 0.00 in/hr0.0 mm/hr 0.00 in0.0 mm
07:50 AM 21.5°F-5.8°C 19.0°F-7.2°C 90% Calm Calm -- 30.11 in1019.6 mb 0.00 in0.0 mm 0.00 in/hr0.0 mm/hr 0.00 in0.0 mm
08:00 AM 21.4°F-5.9°C 18.7°F-7.4°C 89% Calm Calm -- 30.12 in1020.0 mb 0.00 in0.0 mm 0.00 in/hr0.0 mm/hr 0.00 in0.0 mm
08:10 AM 21.4°F-5.9°C 18.9°F-7.3°C 90% 0.1 mph WNW0.2 kmh WNW 2.0 mph3.2 kmh 30.13 in1020.3 mb 0.00 in0.0 mm 0.00 in/hr0.0 mm/hr 0.00 in0.0 mm
08:20 AM 21.5°F-5.8°C 19.0°F-7.2°C 90% Calm Calm -- 30.13 in1020.3 mb 0.00 in0.0 mm 0.00 in/hr0.0 mm/hr 0.00 in0.0 mm
08:30 AM 21.7°F-5.7°C 19.2°F-7.1°C 90% Calm Calm -- 30.13 in1020.3 mb 0.00 in0.0 mm 0.00 in/hr0.0 mm/hr 0.00 in0.0 mm
08:40 AM 22.0°F-5.6°C 19.6°F-6.9°C 90% 0.1 mph WNW0.2 kmh WNW -- 30.13 in1020.3 mb 0.00 in0.0 mm 0.00 in/hr0.0 mm/hr 0.00 in0.0 mm
08:50 AM 22.6°F-5.2°C 20.1°F-6.6°C 90% 0.4 mph WNW0.6 kmh WNW 2.0 mph3.2 kmh 30.14 in1020.7 mb 0.00 in0.0 mm 0.00 in/hr0.0 mm/hr 0.00 in0.0 mm
09:00 AM 23.2°F-4.9°C 20.4°F-6.4°C 89% 0.7 mph WNW1.1 kmh WNW 3.1 mph5.0 kmh 30.13 in1020.3 mb 0.00 in0.0 mm 0.00 in/hr0.0 mm/hr 0.00 in0.0 mm
09:10 AM 23.9°F-4.5°C 21.1°F-6.1°C 89% 1.4 mph WNW2.3 kmh WNW 2.0 mph3.2 kmh 30.13 in1020.3 mb 0.00 in0.0 mm 0.00 in/hr0.0 mm/hr 0.00 in0.0 mm
09:30 AM 25.5°F-3.6°C 22.5°F-5.3°C 88% 1.9 mph W3.1 kmh W 6.1 mph9.8 kmh 30.13 in1020.3 mb 0.00 in0.0 mm 0.00 in/hr0.0 mm/hr 0.00 in0.0 mm
09:40 AM 26.3°F-3.2°C 22.7°F-5.2°C 86% 2.2 mph W3.5 kmh W 3.1 mph5.0 kmh 30.14 in1020.7 mb 0.00 in0.0 mm 0.00 in/hr0.0 mm/hr 0.00 in0.0 mm
09:50 AM 26.7°F-2.9°C 22.8°F-5.1°C 85% 1.9 mph W3.1 kmh W 3.1 mph5.0 kmh 30.14 in1020.7 mb 0.00 in0.0 mm 0.00 in/hr0.0 mm/hr 0.00 in0.0 mm
10:00 AM 26.9°F-2.8°C 23.0°F-5.0°C 85% 1.9 mph WSW3.1 kmh WSW 2.0 mph3.2 kmh 30.13 in1020.3 mb 0.00 in0.0 mm 0.00 in/hr0.0 mm/hr 0.00 in0.0 mm
10:10 AM 27.3°F-2.6°C 23.2°F-4.9°C 84% 0.3 mph W0.5 kmh W 3.1 mph5.0 kmh 30.13 in1020.3 mb 0.00 in0.0 mm 0.00 in/hr0.0 mm/hr 0.00 in0.0 mm
10:20 AM 27.4°F-2.6°C 23.2°F-4.9°C 84% 1.9 mph WSW3.1 kmh WSW 4.1 mph6.6 kmh 30.12 in1020.0 mb 0.00 in0.0 mm 0.00 in/hr0.0 mm/hr 0.00 in0.0 mm
10:30 AM 27.7°F-2.4°C 23.5°F-4.7°C 84% 1.5 mph WSW2.4 kmh WSW 3.1 mph5.0 kmh 30.12 in1020.0 mb 0.00 in0.0 mm 0.00 in/hr0.0 mm/hr 0.00 in0.0 mm
10:40 AM 28.3°F-2.1°C 23.8°F-4.6°C 83% 3.1 mph WSW5.0 kmh WSW 5.1 mph8.2 kmh 30.12 in1020.0 mb 0.00 in0.0 mm 0.00 in/hr0.0 mm/hr 0.00 in0.0 mm
10:50 AM 28.8°F-1.8°C 24.0°F-4.4°C 82% 1.1 mph WSW1.8 kmh WSW 3.1 mph5.0 kmh 30.11 in1019.6 mb 0.00 in0.0 mm 0.00 in/hr0.0 mm/hr 0.00 in0.0 mm
11:00 AM 29.0°F-1.7°C 24.2°F-4.3°C 82% 1.5 mph WSW2.4 kmh WSW 3.1 mph5.0 kmh 30.11 in1019.6 mb 0.00 in0.0 mm 0.00 in/hr0.0 mm/hr 0.00 in0.0 mm
11:10 AM 29.6°F-1.3°C 24.5°F-4.2°C 81% 3.2 mph WSW5.1 kmh WSW 5.1 mph8.2 kmh 30.11 in1019.6 mb 0.00 in0.0 mm 0.00 in/hr0.0 mm/hr 0.00 in0.0 mm
11:40 AM 31.3°F-0.4°C 25.5°F-3.6°C 79% 0.1 mph WSW0.2 kmh WSW 2.0 mph3.2 kmh 30.10 in1019.3 mb 0.00 in0.0 mm 0.00 in/hr0.0 mm/hr 0.00 in0.0 mm
11:50 AM 31.8°F-0.1°C 25.7°F-3.5°C 78% 0.8 mph WSW1.3 kmh WSW 3.1 mph5.0 kmh 30.11 in1019.6 mb 0.00 in0.0 mm 0.00 in/hr0.0 mm/hr 0.00 in0.0 mm
12:00 PM 31.8°F-0.1°C 25.7°F-3.5°C 78% 1.1 mph NW1.8 kmh NW 4.1 mph6.6 kmh 30.11 in1019.6 mb 0.00 in0.0 mm 0.00 in/hr0.0 mm/hr 0.00 in0.0 mm
12:10 PM 32.1°F0.1°C 25.7°F-3.5°C 77% 2.5 mph W4.0 kmh W 7.1 mph11.4 kmh 30.11 in1019.6 mb 0.00 in0.0 mm 0.00 in/hr0.0 mm/hr 0.00 in0.0 mm
12:30 PM 32.5°F0.3°C 26.1°F-3.3°C 77% 2.3 mph W3.7 kmh W 4.1 mph6.6 kmh 30.09 in1019.0 mb 0.00 in0.0 mm 0.00 in/hr0.0 mm/hr 0.00 in0.0 mm
12:40 PM 32.7°F0.4°C 26.3°F-3.2°C 77% 2.2 mph WSW3.5 kmh WSW 4.1 mph6.6 kmh 30.08 in1018.6 mb 0.00 in0.0 mm 0.00 in/hr0.0 mm/hr 0.00 in0.0 mm
12:50 PM 33.3°F0.7°C 26.9°F-2.8°C 77% 4.3 mph WSW6.9 kmh WSW 8.2 mph13.2 kmh 30.08 in1018.6 mb 0.00 in0.0 mm 0.00 in/hr0.0 mm/hr 0.00 in0.0 mm
01:00 PM 33.2°F0.7°C 26.8°F-2.9°C 77% 3.3 mph WSW5.3 kmh WSW 5.1 mph8.2 kmh 30.07 in1018.3 mb 0.00 in0.0 mm 0.00 in/hr0.0 mm/hr 0.00 in0.0 mm
01:10 PM 33.9°F1.1°C 27.5°F-2.5°C 77% 2.5 mph SW4.0 kmh SW 4.1 mph6.6 kmh 30.07 in1018.3 mb 0.00 in0.0 mm 0.00 in/hr0.0 mm/hr 0.00 in0.0 mm
01:30 PM 34.7°F1.5°C 27.3°F-2.6°C 74% 2.0 mph SW3.2 kmh SW 4.1 mph6.6 kmh 30.07 in1018.3 mb 0.00 in0.0 mm 0.00 in/hr0.0 mm/hr 0.00 in0.0 mm
01:50 PM 35.5°F1.9°C 27.7°F-2.4°C 73% 3.2 mph WSW5.1 kmh WSW 3.1 mph5.0 kmh 30.07 in1018.3 mb 0.00 in0.0 mm 0.00 in/hr0.0 mm/hr 0.00 in0.0 mm
02:00 PM 35.5°F1.9°C 27.4°F-2.6°C 72% 2.6 mph SW4.2 kmh SW 5.1 mph8.2 kmh 30.06 in1017.9 mb 0.00 in0.0 mm 0.00 in/hr0.0 mm/hr 0.00 in0.0 mm
02:10 PM 35.8°F2.1°C 27.7°F-2.4°C 72% 2.9 mph SSW4.7 kmh SSW 4.1 mph6.6 kmh 30.05 in1017.6 mb 0.00 in0.0 mm 0.00 in/hr0.0 mm/hr 0.00 in0.0 mm
02:20 PM 36.2°F2.3°C 28.1°F-2.2°C 72% 2.6 mph SSW4.2 kmh SSW 4.1 mph6.6 kmh 30.05 in1017.6 mb 0.00 in0.0 mm 0.00 in/hr0.0 mm/hr 0.00 in0.0 mm
02:30 PM 36.6°F2.6°C 28.8°F-1.8°C 73% 4.4 mph SW7.1 kmh SW 10.2 mph16.4 kmh 30.05 in1017.6 mb 0.00 in0.0 mm 0.00 in/hr0.0 mm/hr 0.00 in0.0 mm
02:40 PM 36.5°F2.5°C 28.7°F-1.8°C 73% 4.2 mph WSW6.8 kmh WSW 5.1 mph8.2 kmh 30.05 in1017.6 mb 0.00 in0.0 mm 0.00 in/hr0.0 mm/hr 0.00 in0.0 mm
02:50 PM 36.6°F2.6°C 28.8°F-1.8°C 73% 2.7 mph WSW4.3 kmh WSW 4.1 mph6.6 kmh 30.04 in1017.3 mb 0.00 in0.0 mm 0.00 in/hr0.0 mm/hr 0.00 in0.0 mm
03:00 PM 36.5°F2.5°C 29.0°F-1.7°C 74% 1.4 mph SW2.3 kmh SW 3.1 mph5.0 kmh 30.04 in1017.3 mb 0.00 in0.0 mm 0.00 in/hr0.0 mm/hr 0.00 in0.0 mm
03:10 PM 36.6°F2.6°C 28.8°F-1.8°C 73% 2.7 mph SSW4.3 kmh SSW 5.1 mph8.2 kmh 30.03 in1016.9 mb 0.00 in0.0 mm 0.00 in/hr0.0 mm/hr 0.00 in0.0 mm
03:20 PM 36.1°F2.3°C 28.9°F-1.7°C 75% 1.2 mph WSW1.9 kmh WSW 5.1 mph8.2 kmh 30.03 in1016.9 mb 0.00 in0.0 mm 0.00 in/hr0.0 mm/hr 0.00 in0.0 mm
03:30 PM 35.9°F2.2°C 28.8°F-1.8°C 75% 4.9 mph SW7.9 kmh SW 6.1 mph9.8 kmh 30.02 in1016.6 mb 0.00 in0.0 mm 0.00 in/hr0.0 mm/hr 0.00 in0.0 mm
03:40 PM 36.1°F2.3°C 28.9°F-1.7°C 75% 5.4 mph S8.7 kmh S 9.2 mph14.8 kmh 30.02 in1016.6 mb 0.00 in0.0 mm 0.00 in/hr0.0 mm/hr 0.00 in0.0 mm
03:50 PM 35.6°F2.0°C 29.4°F-1.4°C 78% 6.1 mph S9.8 kmh S 11.2 mph18.0 kmh 30.02 in1016.6 mb 0.00 in0.0 mm 0.00 in/hr0.0 mm/hr 0.00 in0.0 mm
04:10 PM 34.4°F1.3°C 28.2°F-2.1°C 78% 3.7 mph S6.0 kmh S 9.2 mph14.8 kmh 30.03 in1016.9 mb 0.00 in0.0 mm 0.00 in/hr0.0 mm/hr 0.00 in0.0 mm
04:20 PM 34.2°F1.2°C 28.1°F-2.2°C 78% 0.4 mph SSW0.6 kmh SSW 5.1 mph8.2 kmh 30.04 in1017.3 mb 0.00 in0.0 mm 0.00 in/hr0.0 mm/hr 0.00 in0.0 mm
04:30 PM 33.7°F0.9°C 27.9°F-2.3°C 79% 3.6 mph S5.8 kmh S 7.1 mph11.4 kmh 30.04 in1017.3 mb 0.00 in0.0 mm 0.00 in/hr0.0 mm/hr 0.00 in0.0 mm
04:40 PM 33.2°F0.7°C 28.0°F-2.2°C 81% 4.7 mph S7.6 kmh S 7.1 mph11.4 kmh 30.03 in1016.9 mb 0.00 in0.0 mm 0.00 in/hr0.0 mm/hr 0.00 in0.0 mm
04:50 PM 33.0°F0.6°C 28.1°F-2.2°C 82% 3.9 mph S6.3 kmh S 6.1 mph9.8 kmh 30.03 in1016.9 mb 0.00 in0.0 mm 0.00 in/hr0.0 mm/hr 0.00 in0.0 mm
05:00 PM 32.8°F0.4°C 28.2°F-2.1°C 83% 3.1 mph S5.0 kmh S 3.1 mph5.0 kmh 30.04 in1017.3 mb 0.00 in0.0 mm 0.00 in/hr0.0 mm/hr 0.00 in0.0 mm
05:10 PM 32.4°F0.2°C 28.1°F-2.2°C 84% 3.1 mph SSW5.0 kmh SSW 4.1 mph6.6 kmh 30.04 in1017.3 mb 0.00 in0.0 mm 0.00 in/hr0.0 mm/hr 0.00 in0.0 mm
05:20 PM 32.2°F0.1°C 27.9°F-2.3°C 84% Calm Calm 1.0 mph1.6 kmh 30.04 in1017.3 mb 0.00 in0.0 mm 0.00 in/hr0.0 mm/hr 0.00 in0.0 mm
05:30 PM 31.9°F-0.1°C 27.9°F-2.3°C 85% Calm Calm -- 30.04 in1017.3 mb 0.00 in0.0 mm 0.00 in/hr0.0 mm/hr 0.00 in0.0 mm
05:40 PM 31.6°F-0.2°C 27.9°F-2.3°C 86% 0.5 mph S0.8 kmh S 3.1 mph5.0 kmh 30.04 in1017.3 mb 0.00 in0.0 mm 0.00 in/hr0.0 mm/hr 0.00 in0.0 mm
05:50 PM 31.4°F-0.3°C 27.7°F-2.4°C 86% Calm Calm -- 30.04 in1017.3 mb 0.00 in0.0 mm 0.00 in/hr0.0 mm/hr 0.00 in0.0 mm
06:00 PM 31.5°F-0.3°C 28.1°F-2.2°C 87% 3.0 mph SSW4.8 kmh SSW 5.1 mph8.2 kmh 30.04 in1017.3 mb 0.00 in0.0 mm 0.00 in/hr0.0 mm/hr 0.00 in0.0 mm
06:10 PM 31.5°F-0.3°C 28.1°F-2.2°C 87% 4.3 mph S6.9 kmh S 7.1 mph11.4 kmh 30.03 in1016.9 mb 0.00 in0.0 mm 0.00 in/hr0.0 mm/hr 0.00 in0.0 mm
06:30 PM 31.8°F-0.1°C 28.4°F-2.0°C 87% 2.9 mph S4.7 kmh S 6.1 mph9.8 kmh 30.02 in1016.6 mb 0.00 in0.0 mm 0.00 in/hr0.0 mm/hr 0.00 in0.0 mm
06:40 PM 31.9°F-0.1°C 28.2°F-2.1°C 86% 3.7 mph S6.0 kmh S 6.1 mph9.8 kmh 30.02 in1016.6 mb 0.00 in0.0 mm 0.00 in/hr0.0 mm/hr 0.00 in0.0 mm
06:50 PM 32.0°F0.0°C 28.3°F-2.1°C 86% 3.8 mph SSW6.1 kmh SSW 4.1 mph6.6 kmh 30.02 in1016.6 mb 0.00 in0.0 mm 0.00 in/hr0.0 mm/hr 0.00 in0.0 mm
07:00 PM 31.9°F-0.1°C 28.2°F-2.1°C 86% Calm Calm -- 30.02 in1016.6 mb 0.00 in0.0 mm 0.00 in/hr0.0 mm/hr 0.00 in0.0 mm
07:10 PM 31.7°F-0.2°C 28.0°F-2.2°C 86% 0.5 mph S0.8 kmh S 3.1 mph5.0 kmh 30.02 in1016.6 mb 0.00 in0.0 mm 0.00 in/hr0.0 mm/hr 0.00 in0.0 mm
07:20 PM 31.7°F-0.2°C 28.3°F-2.1°C 87% 1.1 mph WSW1.8 kmh WSW 3.1 mph5.0 kmh 30.01 in1016.3 mb 0.00 in0.0 mm 0.00 in/hr0.0 mm/hr 0.00 in0.0 mm
07:30 PM 31.7°F-0.2°C 28.0°F-2.2°C 86% Calm Calm -- 30.01 in1016.3 mb 0.00 in0.0 mm 0.00 in/hr0.0 mm/hr 0.00 in0.0 mm
07:40 PM 31.5°F-0.3°C 28.1°F-2.2°C 87% 0.5 mph WSW0.8 kmh WSW 5.1 mph8.2 kmh 30.02 in1016.6 mb 0.00 in0.0 mm 0.00 in/hr0.0 mm/hr 0.00 in0.0 mm
07:50 PM 31.5°F-0.3°C 28.1°F-2.2°C 87% 0.9 mph WSW1.4 kmh WSW 4.1 mph6.6 kmh 30.01 in1016.3 mb 0.00 in0.0 mm 0.00 in/hr0.0 mm/hr 0.00 in0.0 mm
08:00 PM 31.6°F-0.2°C 28.2°F-2.1°C 87% Calm Calm 5.1 mph8.2 kmh 30.01 in1016.3 mb 0.00 in0.0 mm 0.00 in/hr0.0 mm/hr 0.00 in0.0 mm
08:10 PM 31.7°F-0.2°C 28.6°F-1.9°C 88% 1.4 mph SW2.3 kmh SW 1.0 mph1.6 kmh 30.01 in1016.3 mb 0.00 in0.0 mm 0.00 in/hr0.0 mm/hr 0.00 in0.0 mm
08:20 PM 31.6°F-0.2°C 28.2°F-2.1°C 87% 1.8 mph SW2.9 kmh SW 4.1 mph6.6 kmh 30.00 in1015.9 mb 0.00 in0.0 mm 0.00 in/hr0.0 mm/hr 0.00 in0.0 mm
08:30 PM 31.5°F-0.3°C 28.4°F-2.0°C 88% Calm Calm -- 29.99 in1015.6 mb 0.00 in0.0 mm 0.00 in/hr0.0 mm/hr 0.00 in0.0 mm
08:40 PM 31.2°F-0.4°C 28.1°F-2.2°C 88% Calm Calm -- 29.98 in1015.2 mb 0.00 in0.0 mm 0.00 in/hr0.0 mm/hr 0.00 in0.0 mm
08:50 PM 31.1°F-0.5°C 28.0°F-2.2°C 88% 0.3 mph WNW0.5 kmh WNW 2.0 mph3.2 kmh 29.98 in1015.2 mb 0.00 in0.0 mm 0.00 in/hr0.0 mm/hr 0.00 in0.0 mm
09:00 PM 31.0°F-0.6°C 27.9°F-2.3°C 88% Calm Calm 2.0 mph3.2 kmh 29.98 in1015.2 mb 0.00 in0.0 mm 0.00 in/hr0.0 mm/hr 0.00 in0.0 mm
09:10 PM 31.0°F-0.6°C 27.9°F-2.3°C 88% Calm Calm -- 29.98 in1015.2 mb 0.00 in0.0 mm 0.00 in/hr0.0 mm/hr 0.00 in0.0 mm
09:20 PM 30.7°F-0.7°C 27.8°F-2.3°C 89% Calm Calm -- 29.98 in1015.2 mb 0.00 in0.0 mm 0.00 in/hr0.0 mm/hr 0.00 in0.0 mm
09:30 PM 30.9°F-0.6°C 28.0°F-2.2°C 89% Calm Calm -- 29.98 in1015.2 mb 0.00 in0.0 mm 0.00 in/hr0.0 mm/hr 0.00 in0.0 mm
09:40 PM 31.2°F-0.4°C 28.3°F-2.1°C 89% Calm Calm -- 29.98 in1015.2 mb 0.00 in0.0 mm 0.00 in/hr0.0 mm/hr 0.00 in0.0 mm
09:50 PM 31.1°F-0.5°C 28.0°F-2.2°C 88% Calm Calm -- 29.98 in1015.2 mb 0.00 in0.0 mm 0.00 in/hr0.0 mm/hr 0.00 in0.0 mm
10:10 PM 31.5°F-0.3°C 28.4°F-2.0°C 88% Calm Calm -- 29.98 in1015.2 mb 0.00 in0.0 mm 0.00 in/hr0.0 mm/hr 0.00 in0.0 mm
10:20 PM 31.3°F-0.4°C 28.2°F-2.1°C 88% Calm Calm -- 29.97 in1014.9 mb 0.00 in0.0 mm 0.00 in/hr0.0 mm/hr 0.00 in0.0 mm
10:30 PM 31.4°F-0.3°C 28.2°F-2.1°C 88% 0.6 mph SW1.0 kmh SW 3.1 mph5.0 kmh 29.97 in1014.9 mb 0.00 in0.0 mm 0.00 in/hr0.0 mm/hr 0.00 in0.0 mm
10:40 PM 31.1°F-0.5°C 28.0°F-2.2°C 88% 0.8 mph SW1.3 kmh SW 1.0 mph1.6 kmh 29.98 in1015.2 mb 0.00 in0.0 mm 0.00 in/hr0.0 mm/hr 0.00 in0.0 mm
10:50 PM 30.6°F-0.8°C 27.5°F-2.5°C 88% Calm Calm -- 29.98 in1015.2 mb 0.00 in0.0 mm 0.00 in/hr0.0 mm/hr 0.00 in0.0 mm
11:00 PM 30.1°F-1.1°C 27.3°F-2.6°C 89% Calm Calm -- 29.99 in1015.6 mb 0.00 in0.0 mm 0.00 in/hr0.0 mm/hr 0.00 in0.0 mm
11:10 PM 30.0°F-1.1°C 27.1°F-2.7°C 89% Calm Calm -- 29.98 in1015.2 mb 0.00 in0.0 mm 0.00 in/hr0.0 mm/hr 0.00 in0.0 mm
11:20 PM 29.9°F-1.2°C 27.1°F-2.7°C 89% Calm Calm -- 29.97 in1014.9 mb 0.00 in0.0 mm 0.00 in/hr0.0 mm/hr 0.00 in0.0 mm
11:30 PM 29.4°F-1.4°C 26.6°F-3.0°C 89% Calm Calm -- 29.98 in1015.2 mb 0.00 in0.0 mm 0.00 in/hr0.0 mm/hr 0.00 in0.0 mm
11:40 PM 28.8°F-1.8°C 26.3°F-3.2°C 90% Calm Calm -- 29.97 in1014.9 mb 0.00 in0.0 mm 0.00 in/hr0.0 mm/hr 0.00 in0.0 mm
11:50 PM 29.3°F-1.5°C 26.7°F-2.9°C 90% Calm Calm -- 29.97 in1014.9 mb 0.00 in0.0 mm 0.00 in/hr0.0 mm/hr 0.00 in0.0 mm